createdAt,value
2023-04-16T00:02:05.907Z,31.48
2023-04-16T00:04:33.179Z,31.80
2023-04-16T00:07:00.318Z,32.70
2023-04-16T00:09:27.338Z,32.55
2023-04-16T00:11:54.734Z,32.35
2023-04-16T00:14:22.258Z,32.05
2023-04-16T00:16:49.546Z,32.50
2023-04-16T00:19:16.636Z,30.20
2023-04-16T00:21:43.812Z,30.25
2023-04-16T00:24:10.882Z,29.30
2023-04-16T00:26:37.931Z,29.75
2023-04-16T00:29:05.067Z,28.38
2023-04-16T00:31:33.932Z,27.90
2023-04-16T00:34:03.621Z,29.13
2023-04-16T00:36:30.753Z,29.40
2023-04-16T00:38:57.815Z,28.52
2023-04-16T00:41:24.926Z,28.30
2023-04-16T00:43:52.398Z,28.15
2023-04-16T00:46:22.021Z,27.95
2023-04-16T00:48:51.131Z,30.17
2023-04-16T00:51:20.870Z,28.52
2023-04-16T00:53:48.248Z,29.00
2023-04-16T00:56:17.524Z,28.65
2023-04-16T00:58:45.248Z,28.70
2023-04-16T01:01:14.680Z,28.52
2023-04-16T01:03:48.129Z,27.70
2023-04-16T01:06:17.256Z,27.65
2023-04-16T01:08:45.447Z,28.73
2023-04-16T01:11:14.427Z,29.45
2023-04-16T01:13:41.763Z,29.38
2023-04-16T01:16:10.613Z,30.88
2023-04-16T01:18:38.914Z,31.90
2023-04-16T01:21:06.237Z,30.75
2023-04-16T01:23:33.385Z,32.50
2023-04-16T01:26:00.685Z,31.55
2023-04-16T01:28:27.877Z,33.67
2023-04-16T01:30:55.088Z,34.20
2023-04-16T01:33:42.756Z,33.95
2023-04-16T01:36:12.050Z,33.38
2023-04-16T01:38:39.103Z,35.63
2023-04-16T01:41:06.153Z,36.33
2023-04-16T01:43:33.263Z,35.53
2023-04-16T01:46:19.062Z,36.17
2023-04-16T01:48:47.257Z,37.13
2023-04-16T01:51:14.460Z,32.92
2023-04-16T01:53:41.543Z,35.08
2023-04-16T01:56:08.793Z,34.58
2023-04-16T01:58:36.318Z,35.40
2023-04-16T02:01:04.638Z,32.80
2023-04-16T02:03:32.657Z,32.38
2023-04-16T02:06:01.303Z,29.02
2023-04-16T02:08:29.361Z,32.67
2023-04-16T02:10:57.615Z,31.30
2023-04-16T02:13:26.278Z,28.23
2023-04-16T02:15:54.260Z,29.45
2023-04-16T02:18:32.312Z,28.23
2023-04-16T02:21:00.559Z,27.80
2023-04-16T02:23:27.693Z,28.50
2023-04-16T02:25:56.884Z,26.35
2023-04-16T02:28:24.017Z,25.58
2023-04-16T02:30:51.206Z,24.55
2023-04-16T02:33:20.348Z,26.10
2023-04-16T02:35:57.700Z,21.67
2023-04-16T02:38:24.818Z,23.10
2023-04-16T02:40:51.978Z,22.05
2023-04-16T02:43:18.982Z,21.48
2023-04-16T02:45:46.286Z,20.92
2023-04-16T02:48:13.501Z,20.17
2023-04-16T02:50:40.910Z,19.98
2023-04-16T02:53:08.210Z,19.27
2023-04-16T02:55:35.221Z,17.38
2023-04-16T02:58:02.371Z,18.83
2023-04-16T03:00:29.440Z,18.58
2023-04-16T03:02:56.532Z,17.73
2023-04-16T03:05:23.641Z,18.20
2023-04-16T03:07:56.436Z,17.35
2023-04-16T03:10:24.107Z,19.45
2023-04-16T03:12:51.246Z,19.10
2023-04-16T03:15:18.134Z,20.67
2023-04-16T03:17:44.987Z,20.50
2023-04-16T03:20:12.174Z,21.98
2023-04-16T03:22:39.717Z,22.33
2023-04-16T03:25:07.958Z,21.15
2023-04-16T03:27:35.160Z,22.90
2023-04-16T03:30:02.573Z,22.83
2023-04-16T03:32:30.410Z,24.23
2023-04-16T03:34:57.471Z,24.95
2023-04-16T03:37:24.553Z,26.15
2023-04-16T03:39:51.626Z,26.40
2023-04-16T03:42:18.469Z,26.67
2023-04-16T03:44:45.725Z,25.70
2023-04-16T03:47:13.784Z,26.92
2023-04-16T03:49:40.785Z,29.25
2023-04-16T03:52:07.905Z,27.95
2023-04-16T03:54:34.716Z,28.80
2023-04-16T03:57:13.545Z,30.30
2023-04-16T03:59:40.849Z,27.10
2023-04-16T04:02:08.171Z,28.15
2023-04-16T04:04:35.457Z,30.08
2023-04-16T04:07:03.262Z,27.42
2023-04-16T04:09:30.471Z,27.98
2023-04-16T04:11:57.586Z,28.60
2023-04-16T04:14:24.785Z,28.80
2023-04-16T04:16:51.987Z,28.27
2023-04-16T04:19:19.049Z,30.55
2023-04-16T04:21:46.317Z,28.52
2023-04-16T04:24:13.953Z,27.55
2023-04-16T04:26:41.061Z,26.80
2023-04-16T04:29:08.403Z,28.58
2023-04-16T04:31:36.090Z,27.52
2023-04-16T04:34:03.353Z,26.30
2023-04-16T04:36:31.155Z,28.15
2023-04-16T04:38:58.760Z,29.17
2023-04-16T04:41:27.128Z,29.05
2023-04-16T04:43:54.425Z,27.33
2023-04-16T04:46:21.871Z,27.90
2023-04-16T04:48:50.681Z,29.25
2023-04-16T04:51:17.879Z,29.20
2023-04-16T04:53:47.126Z,30.80
2023-04-16T04:56:14.288Z,28.73
2023-04-16T04:58:42.066Z,29.88
2023-04-16T05:01:09.449Z,28.65
2023-04-16T05:03:36.702Z,29.42
2023-04-16T05:06:03.987Z,30.88
2023-04-16T05:08:31.139Z,30.63
2023-04-16T05:10:58.341Z,29.67
2023-04-16T05:13:25.383Z,29.88
2023-04-16T05:15:52.493Z,31.00
2023-04-16T05:18:19.612Z,32.20
2023-04-16T05:20:46.800Z,32.90
2023-04-16T05:23:15.685Z,34.03
2023-04-16T05:25:42.788Z,36.95
2023-04-16T05:28:10.811Z,35.70
2023-04-16T05:30:38.026Z,35.17
2023-04-16T05:33:05.241Z,33.30
2023-04-16T05:35:32.417Z,35.50
2023-04-16T05:37:59.438Z,34.00
2023-04-16T05:40:27.198Z,33.78
2023-04-16T05:42:54.274Z,35.80
2023-04-16T05:45:21.482Z,34.75
2023-04-16T05:47:48.774Z,33.50
2023-04-16T05:50:16.133Z,33.55
2023-04-16T05:52:43.236Z,33.83
2023-04-16T05:55:10.608Z,30.92
2023-04-16T05:57:37.662Z,35.90
2023-04-16T06:00:05.295Z,31.52
2023-04-16T06:02:39.475Z,33.38
2023-04-16T06:05:06.867Z,33.13
2023-04-16T06:07:34.052Z,33.47
2023-04-16T06:10:01.143Z,32.25
2023-04-16T06:12:28.380Z,33.67
2023-04-16T06:14:55.463Z,33.85
2023-04-16T06:17:23.085Z,34.35
2023-04-16T06:19:50.352Z,33.17
2023-04-16T06:22:17.746Z,35.28
2023-04-16T06:24:44.753Z,35.20
2023-04-16T06:27:12.208Z,34.05
2023-04-16T06:29:41.434Z,34.47
2023-04-16T06:32:08.994Z,36.20
2023-04-16T06:34:36.256Z,33.20
2023-04-16T06:37:03.239Z,34.80
2023-04-16T06:39:30.300Z,34.65
2023-04-16T06:41:57.560Z,35.88
2023-04-16T06:44:24.421Z,34.45
2023-04-16T06:46:51.597Z,34.90
2023-04-16T06:49:18.446Z,35.55
2023-04-16T06:51:45.567Z,37.10
2023-04-16T06:54:12.459Z,37.65
2023-04-16T06:56:39.536Z,38.38
2023-04-16T06:59:07.850Z,36.38
2023-04-16T07:01:35.757Z,38.30
2023-04-16T07:04:03.703Z,37.20
2023-04-16T07:06:31.964Z,35.65
2023-04-16T07:08:58.946Z,34.38
2023-04-16T07:11:26.634Z,36.17
2023-04-16T07:13:53.947Z,36.72
2023-04-16T07:16:21.021Z,35.58
2023-04-16T07:18:48.089Z,34.25
2023-04-16T07:21:15.219Z,32.63
2023-04-16T07:23:43.109Z,32.13
2023-04-16T07:26:11.695Z,29.98
2023-04-16T07:28:38.716Z,31.00
2023-04-16T07:31:05.857Z,30.80
2023-04-16T07:33:32.843Z,29.30
2023-04-16T07:35:59.807Z,32.20
2023-04-16T07:38:26.752Z,29.25
2023-04-16T07:40:55.040Z,28.50
2023-04-16T07:43:22.473Z,27.23
2023-04-16T07:45:49.748Z,29.08
2023-04-16T07:48:16.905Z,28.30
2023-04-16T07:50:44.877Z,27.83
2023-04-16T07:53:12.605Z,29.52
2023-04-16T07:55:40.488Z,28.58
2023-04-16T07:58:09.827Z,26.98
2023-04-16T08:00:37.474Z,28.48
2023-04-16T08:03:05.122Z,28.40
2023-04-16T08:05:32.569Z,27.73
2023-04-16T08:07:59.560Z,27.02
2023-04-16T08:10:28.099Z,27.50
2023-04-16T08:12:55.392Z,26.35
2023-04-16T08:15:23.381Z,25.17
2023-04-16T08:17:51.237Z,24.27
2023-04-16T08:20:19.341Z,24.85
2023-04-16T08:22:47.046Z,25.05
2023-04-16T08:25:15.070Z,23.30
2023-04-16T08:27:42.620Z,22.30
2023-04-16T08:30:10.882Z,22.92
2023-04-16T08:32:38.981Z,24.23
2023-04-16T08:35:07.769Z,22.42
2023-04-16T08:37:34.936Z,23.27
2023-04-16T08:40:02.876Z,22.65
2023-04-16T08:42:45.902Z,23.02
2023-04-16T08:45:18.398Z,22.52
2023-04-16T08:47:51.450Z,21.88
2023-04-16T08:50:27.152Z,22.55
2023-04-16T08:53:01.651Z,21.98
2023-04-16T08:55:57.164Z,23.08
2023-04-16T08:58:32.123Z,23.50
2023-04-16T09:00:59.790Z,23.23
2023-04-16T09:03:29.955Z,22.42
2023-04-16T09:05:59.880Z,24.08
2023-04-16T09:08:28.157Z,25.30
2023-04-16T09:10:57.050Z,24.23
2023-04-16T09:13:24.893Z,24.63
2023-04-16T09:15:57.279Z,24.08
2023-04-16T09:18:26.070Z,23.60
2023-04-16T09:20:53.367Z,26.17
2023-04-16T09:23:20.672Z,23.95
2023-04-16T09:25:48.116Z,23.98
2023-04-16T09:28:46.172Z,24.02
2023-04-16T09:31:18.017Z,25.65
2023-04-16T09:34:08.925Z,25.75
2023-04-16T09:36:36.913Z,25.88
2023-04-16T09:39:04.319Z,24.50
2023-04-16T09:41:33.316Z,26.63
2023-04-16T09:44:05.192Z,27.35
2023-04-16T09:46:36.405Z,24.85
2023-04-16T09:49:10.817Z,26.83
2023-04-16T09:51:41.788Z,25.80
2023-04-16T09:54:10.019Z,25.35
2023-04-16T09:56:42.865Z,26.88
2023-04-16T09:59:18.123Z,26.23
2023-04-16T10:01:49.426Z,26.10
2023-04-16T10:04:17.572Z,26.13
2023-04-16T10:06:48.536Z,25.13
2023-04-16T10:09:15.791Z,26.60
2023-04-16T10:11:43.336Z,28.33
2023-04-16T10:14:10.257Z,27.83
2023-04-16T10:16:40.130Z,28.50
2023-04-16T10:19:07.106Z,29.48
2023-04-16T10:21:34.676Z,28.13
2023-04-16T10:24:01.918Z,30.48
2023-04-16T10:26:31.358Z,29.52
2023-04-16T10:29:00.596Z,30.30
2023-04-16T10:31:29.616Z,27.88
2023-04-16T10:33:59.169Z,29.80
2023-04-16T10:36:26.725Z,29.42
2023-04-16T10:38:58.870Z,29.77
2023-04-16T10:41:29.602Z,30.48
2023-04-16T10:44:09.957Z,28.42
2023-04-16T10:46:41.715Z,30.10
2023-04-16T10:49:20.209Z,27.80
2023-04-16T10:51:53.376Z,28.05
2023-04-16T10:54:25.548Z,28.88
2023-04-16T10:56:55.952Z,30.13
2023-04-16T11:01:56.689Z,31.25
2023-04-16T11:04:24.765Z,30.52
2023-04-16T11:07:20.160Z,32.17
2023-04-16T11:09:59.644Z,31.08
2023-04-16T11:12:35.812Z,30.77
2023-04-16T11:15:10.280Z,29.88
2023-04-16T11:17:43.468Z,29.10
2023-04-16T11:20:20.897Z,30.17
2023-04-16T11:22:58.716Z,29.85
2023-04-16T11:25:30.428Z,31.48
2023-04-16T11:27:59.336Z,32.22
2023-04-16T11:30:35.576Z,32.28
2023-04-16T11:33:09.472Z,30.95
2023-04-16T11:35:37.046Z,29.75
2023-04-16T11:38:06.225Z,31.35
2023-04-16T11:40:36.045Z,29.80
2023-04-16T11:43:17.159Z,28.88
2023-04-16T11:46:20.081Z,27.52
2023-04-16T11:48:56.872Z,32.13
2023-04-16T11:51:24.242Z,31.77
2023-04-16T11:53:56.176Z,30.60
2023-04-16T11:56:30.688Z,32.30
2023-04-16T11:59:18.945Z,30.90
2023-04-16T12:01:51.580Z,30.77
2023-04-16T12:04:26.951Z,31.23
2023-04-16T12:07:13.348Z,30.15
2023-04-16T12:09:42.411Z,31.75
2023-04-16T12:12:31.936Z,32.90
2023-04-16T12:15:03.175Z,33.25
2023-04-16T12:17:34.939Z,31.65
2023-04-16T12:20:06.879Z,34.47
2023-04-16T12:22:37.394Z,33.42
2023-04-16T12:25:07.175Z,33.63
2023-04-16T12:27:47.020Z,33.60
2023-04-16T12:30:15.725Z,32.45
2023-04-16T12:32:44.733Z,34.22
2023-04-16T12:35:12.550Z,32.75
2023-04-16T12:37:41.768Z,32.28
2023-04-16T12:40:09.648Z,32.80
2023-04-16T12:42:40.489Z,34.15
2023-04-16T12:45:08.378Z,32.60
2023-04-16T12:47:36.717Z,30.67
2023-04-16T12:50:03.916Z,33.25
2023-04-16T12:52:31.850Z,33.17
2023-04-16T12:54:59.060Z,32.97
2023-04-16T12:57:28.873Z,32.40
2023-04-16T13:00:00.411Z,31.52
2023-04-16T13:02:28.430Z,28.88
2023-04-16T13:04:55.545Z,29.80
2023-04-16T13:07:22.515Z,32.45
2023-04-16T13:09:49.375Z,32.47
2023-04-16T13:12:16.535Z,31.23
2023-04-16T13:14:45.040Z,33.25
2023-04-16T13:17:12.061Z,32.10
2023-04-16T13:19:38.895Z,30.80
2023-04-16T13:22:05.864Z,32.90
2023-04-16T13:24:32.738Z,29.98
2023-04-16T13:26:59.775Z,30.65
2023-04-16T13:29:27.137Z,29.48
2023-04-16T13:31:54.524Z,26.92
2023-04-16T13:34:21.746Z,25.60
2023-04-16T13:36:49.010Z,26.85
2023-04-16T13:39:15.970Z,26.45
2023-04-16T13:41:43.374Z,26.80
2023-04-16T13:44:10.303Z,27.17
2023-04-16T13:46:37.267Z,25.38
2023-04-16T13:49:04.174Z,26.75
2023-04-16T13:51:32.099Z,26.02
2023-04-16T13:53:59.001Z,25.92
2023-04-16T13:56:26.100Z,27.20
2023-04-16T13:58:53.374Z,24.40
2023-04-16T14:01:20.597Z,22.80
2023-04-16T14:03:47.582Z,21.98
2023-04-16T14:06:15.132Z,22.23
2023-04-16T14:08:42.147Z,22.33
2023-04-16T14:11:09.467Z,23.30
2023-04-16T14:13:37.328Z,22.80
2023-04-16T14:16:05.087Z,23.48
2023-04-16T14:18:32.228Z,22.35
2023-04-16T14:21:02.120Z,23.15
2023-04-16T14:23:29.270Z,22.95
2023-04-16T14:25:56.915Z,21.98
2023-04-16T14:28:23.998Z,21.92
2023-04-16T14:30:51.003Z,22.65
2023-04-16T14:33:18.338Z,20.55
2023-04-16T14:35:45.514Z,22.60
2023-04-16T14:38:12.669Z,19.00
2023-04-16T14:40:40.840Z,20.25
2023-04-16T14:43:07.993Z,20.38
2023-04-16T14:45:35.215Z,18.42
2023-04-16T14:48:02.323Z,19.27
2023-04-16T14:50:29.236Z,18.90
2023-04-16T14:52:56.262Z,17.73
2023-04-16T14:55:23.230Z,18.98
2023-04-16T14:57:50.193Z,18.77
2023-04-16T15:00:18.721Z,18.45
2023-04-16T15:02:47.239Z,18.38
2023-04-16T15:05:14.469Z,15.95
2023-04-16T15:07:41.479Z,15.70
2023-04-16T15:10:10.235Z,15.65
2023-04-16T15:12:41.891Z,15.07
2023-04-16T15:15:09.631Z,13.07
2023-04-16T15:17:36.809Z,13.77
2023-04-16T15:20:08.885Z,11.73
2023-04-16T15:22:36.819Z,12.23
2023-04-16T15:25:05.906Z,11.98
2023-04-16T15:27:34.274Z,12.65
2023-04-16T15:30:04.230Z,11.82
2023-04-16T15:32:32.158Z,12.15
2023-04-16T15:35:03.693Z,11.70
2023-04-16T15:37:34.171Z,12.38
2023-04-16T15:40:01.319Z,12.70
2023-04-16T15:42:28.457Z,12.95
2023-04-16T15:44:55.387Z,11.77
2023-04-16T15:47:22.373Z,12.18
2023-04-16T15:49:49.547Z,12.77
2023-04-16T15:52:21.010Z,12.07
2023-04-16T15:54:49.632Z,12.68
2023-04-16T15:57:16.755Z,12.48
2023-04-16T15:59:52.862Z,12.95
2023-04-16T16:02:32.543Z,13.02
2023-04-16T16:05:00.813Z,13.00
2023-04-16T16:07:29.384Z,12.02
2023-04-16T16:09:58.475Z,12.25
2023-04-16T16:12:25.806Z,11.73
2023-04-16T16:14:53.285Z,13.15
2023-04-16T16:17:20.646Z,12.98
2023-04-16T16:19:48.636Z,13.27
2023-04-16T16:22:20.398Z,14.32
2023-04-16T16:24:53.805Z,14.50
2023-04-16T16:27:21.148Z,22.33
2023-04-16T16:29:48.551Z,18.27
2023-04-16T16:32:16.501Z,17.17
2023-04-16T16:34:43.514Z,13.93
2023-04-16T16:37:10.699Z,16.65
2023-04-16T16:39:38.924Z,15.82
2023-04-16T16:42:07.320Z,16.02
2023-04-16T16:44:34.800Z,14.93
2023-04-16T16:47:01.991Z,16.35
2023-04-16T16:49:29.281Z,15.25
2023-04-16T16:51:57.679Z,16.80
2023-04-16T16:54:25.008Z,19.70
2023-04-16T16:56:52.961Z,18.35
2023-04-16T16:59:21.215Z,17.83
2023-04-16T17:01:49.565Z,17.00
2023-04-16T17:04:20.022Z,16.65
2023-04-16T17:06:47.852Z,17.77
2023-04-16T17:09:14.922Z,18.52
2023-04-16T17:11:41.896Z,16.85
2023-04-16T17:14:08.776Z,17.38
2023-04-16T17:16:35.983Z,18.23
2023-04-16T17:19:03.608Z,17.83
2023-04-16T17:21:33.483Z,19.23
2023-04-16T17:24:00.673Z,19.38
2023-04-16T17:26:27.741Z,18.83
2023-04-16T17:28:56.876Z,19.25
2023-04-16T17:31:26.851Z,19.17
2023-04-16T17:33:54.502Z,19.58
2023-04-16T17:36:23.015Z,21.45
2023-04-16T17:38:50.682Z,21.67
2023-04-16T17:41:17.566Z,21.10
2023-04-16T17:43:46.831Z,20.88
2023-04-16T17:46:13.932Z,20.73
2023-04-16T17:48:41.112Z,20.52
2023-04-16T17:51:12.000Z,21.13
2023-04-16T17:53:39.050Z,20.90
2023-04-16T17:56:06.735Z,21.20
2023-04-16T17:58:35.362Z,24.23
2023-04-16T18:01:03.523Z,22.13
2023-04-16T18:03:31.522Z,22.27
2023-04-16T18:05:59.355Z,22.25
2023-04-16T18:08:26.888Z,21.35
2023-04-16T18:10:55.350Z,21.80
2023-04-16T18:13:25.784Z,21.48
2023-04-16T18:15:53.043Z,22.10
2023-04-16T18:18:21.369Z,22.48
2023-04-16T18:20:48.506Z,24.05
2023-04-16T18:23:18.590Z,22.02
2023-04-16T18:25:48.830Z,22.70
2023-04-16T18:28:17.618Z,23.20
2023-04-16T18:30:45.315Z,23.60
2023-04-16T18:33:42.735Z,24.40
2023-04-16T18:36:02.312Z,21.92
2023-04-16T18:38:32.035Z,22.25
2023-04-16T18:41:01.045Z,22.30
2023-04-16T18:43:28.566Z,22.52
2023-04-16T18:48:45.323Z,23.35
2023-04-16T18:51:14.209Z,22.65
2023-04-16T18:53:44.351Z,23.30
2023-04-16T18:56:11.911Z,23.20
2023-04-16T18:58:41.744Z,22.05
2023-04-16T19:01:14.026Z,22.50
2023-04-16T19:03:43.766Z,21.45
2023-04-16T19:06:26.067Z,21.98
2023-04-16T19:08:53.044Z,22.35
2023-04-16T19:11:21.119Z,24.88
2023-04-16T19:13:48.365Z,22.00
2023-04-16T19:16:15.836Z,23.52
2023-04-16T19:18:42.984Z,23.23
2023-04-16T19:21:10.989Z,24.23
2023-04-16T19:23:41.205Z,23.92
2023-04-16T19:26:08.537Z,24.30
2023-04-16T19:28:35.831Z,23.02
2023-04-16T19:31:02.926Z,25.83
2023-04-16T19:33:31.403Z,24.88
2023-04-16T19:35:58.721Z,24.67
2023-04-16T19:38:26.660Z,25.17
2023-04-16T19:40:53.544Z,24.25
2023-04-16T19:43:20.572Z,23.17
2023-04-16T19:45:53.439Z,24.30
2023-04-16T19:48:20.875Z,24.80
2023-04-16T19:50:48.323Z,26.85
2023-04-16T19:53:17.162Z,24.92
2023-04-16T19:55:44.138Z,25.95
2023-04-16T19:58:11.161Z,28.38
2023-04-16T20:00:42.542Z,27.30
2023-04-16T20:03:09.778Z,27.48
2023-04-16T20:05:36.692Z,30.15
2023-04-16T20:11:13.931Z,28.50
2023-04-16T20:13:41.112Z,27.52
2023-04-16T20:16:09.307Z,28.52
2023-04-16T20:18:41.625Z,27.98
2023-04-16T20:21:09.640Z,29.77
2023-04-16T20:23:37.056Z,29.35
2023-04-16T20:26:04.482Z,28.13
2023-04-16T20:28:31.506Z,28.13
2023-04-16T20:30:58.633Z,28.58
2023-04-16T20:33:25.614Z,27.65
2023-04-16T20:35:52.531Z,26.48
2023-04-16T20:38:23.811Z,24.83
2023-04-16T20:41:10.091Z,26.33
2023-04-16T20:43:44.202Z,24.65
2023-04-16T20:46:12.027Z,27.23
2023-04-16T20:48:39.305Z,27.92
2023-04-16T20:51:07.851Z,26.75
2023-04-16T20:53:35.328Z,25.80
2023-04-16T20:56:02.382Z,26.98
2023-04-16T20:58:29.819Z,27.88
2023-04-16T21:00:57.502Z,29.88
2023-04-16T21:03:25.202Z,28.08
2023-04-16T21:05:54.308Z,27.55
2023-04-16T21:08:22.427Z,27.30
2023-04-16T21:10:50.472Z,26.67
2023-04-16T21:13:17.437Z,25.80
2023-04-16T21:15:45.154Z,25.60
2023-04-16T21:18:12.553Z,25.75
2023-04-16T21:20:39.846Z,26.90
2023-04-16T21:23:06.795Z,27.30
2023-04-16T21:25:33.672Z,26.60
2023-04-16T21:28:00.598Z,28.60
2023-04-16T21:30:27.541Z,26.40
2023-04-16T21:32:54.908Z,28.63
2023-04-16T21:35:21.797Z,29.77
2023-04-16T21:37:48.636Z,27.20
2023-04-16T21:40:15.567Z,28.67
2023-04-16T21:42:42.578Z,26.40
2023-04-16T21:45:10.481Z,26.77
2023-04-16T21:47:38.219Z,27.67
2023-04-16T21:50:05.837Z,28.95
2023-04-16T21:52:33.124Z,25.75
2023-04-16T21:55:00.534Z,26.15
2023-04-16T21:57:27.476Z,26.30
2023-04-16T21:59:54.325Z,26.38
2023-04-16T22:02:21.356Z,25.38
2023-04-16T22:04:48.708Z,26.50
2023-04-16T22:07:16.863Z,23.60
2023-04-16T22:09:43.935Z,25.00
2023-04-16T22:12:10.828Z,23.90
2023-04-16T22:14:44.120Z,25.05
2023-04-16T22:17:17.170Z,24.10
2023-04-16T22:19:44.603Z,23.98
2023-04-16T22:22:11.429Z,24.17
2023-04-16T22:24:38.203Z,24.05
2023-04-16T22:27:05.066Z,23.48
2023-04-16T22:29:31.968Z,23.80
2023-04-16T22:32:00.760Z,21.30
2023-04-16T22:34:27.607Z,21.88
2023-04-16T22:36:54.431Z,22.83
2023-04-16T22:39:21.486Z,22.45
2023-04-16T22:41:48.425Z,20.45
2023-04-16T22:44:15.756Z,22.92
2023-04-16T22:46:42.577Z,22.65
2023-04-16T22:49:09.403Z,21.77
2023-04-16T22:51:36.276Z,21.73
2023-04-16T22:54:03.072Z,21.58
2023-04-16T22:56:31.083Z,22.92
2023-04-16T22:58:57.962Z,21.67
2023-04-16T23:01:25.376Z,20.92
2023-04-16T23:03:52.665Z,21.65
2023-04-16T23:06:19.483Z,20.45
2023-04-16T23:08:46.553Z,21.95
2023-04-16T23:11:13.346Z,22.15
2023-04-16T23:13:40.282Z,21.27
2023-04-16T23:16:07.839Z,22.35
2023-04-16T23:18:34.821Z,20.67
2023-04-16T23:21:01.636Z,20.20
2023-04-16T23:23:28.469Z,20.80
2023-04-16T23:25:55.295Z,21.27
2023-04-16T23:28:22.401Z,20.90
2023-04-16T23:30:55.361Z,21.77
2023-04-16T23:33:22.289Z,22.80
2023-04-16T23:35:49.288Z,21.95
2023-04-16T23:38:16.247Z,22.02
2023-04-16T23:40:43.139Z,21.42
2023-04-16T23:43:10.673Z,19.80
2023-04-16T23:45:37.569Z,21.60
2023-04-16T23:48:04.560Z,22.90
2023-04-16T23:50:31.457Z,22.25
2023-04-16T23:52:58.308Z,21.23
2023-04-16T23:55:25.390Z,22.05
2023-04-16T23:57:52.221Z,23.42
